Terminal Aerodrome Forecast
Issued by NWS Blacksburg, VA

Home | Current Version | Previous Version | Text Only | Print | Product List | Glossary On
Versions: 1 2 3 4 5 6 7 8 9 10 11 12 13 14 15 16 17 18 19 20 21 22 23 24 25 26 27 28 29 30 31 32
000
FTUS41 KRNK 050540
TAFBLF
TAF
KBLF 050540Z 0506/0606 09004KT P6SM BKN250
     FM051000 11005KT P6SM OVC015
     FM051800 12008G16KT P6SM VCTS BKN023 BKN035CB=

USA.gov is the U.S. government's official web portal to all federal, state and local government web resources and services.